createdAt,value
2018-06-16T15:40:47.584Z,37.72
2018-06-16T15:41:57.347Z,37.82
2018-06-16T15:43:06.864Z,37.88
2018-06-16T15:44:16.894Z,38.19
2018-06-16T15:45:27.013Z,38.53
2018-06-16T15:46:36.813Z,38.87
2018-06-16T15:47:46.677Z,38.14
2018-06-16T15:48:56.707Z,38.16
2018-06-16T15:50:06.221Z,37.92
2018-06-16T15:51:16.005Z,37.64
2018-06-16T15:52:26.120Z,37.75
2018-06-16T15:53:35.618Z,37.76
2018-06-16T15:54:45.388Z,37.64
2018-06-16T15:55:55.424Z,37.75
2018-06-16T15:57:07.551Z,37.73
2018-06-16T15:58:17.531Z,37.58
2018-06-16T15:59:27.291Z,37.73
2018-06-16T16:00:37.049Z,37.83
2018-06-16T16:01:46.818Z,38.04
2018-06-16T16:02:56.845Z,37.82
2018-06-16T16:04:06.349Z,37.9
2018-06-16T16:05:16.108Z,37.88
2018-06-16T16:06:26.136Z,37.88
2018-06-16T16:07:35.367Z,38.09
2018-06-16T16:08:44.861Z,38.14
2018-06-16T16:09:54.617Z,38.23
2018-06-16T16:11:04.131Z,38.04
2018-06-16T16:12:14.160Z,37.82
2018-06-16T16:13:24.203Z,38.1
2018-06-16T16:14:34.230Z,38.16
2018-06-16T16:15:43.726Z,38.01
2018-06-16T16:16:53.219Z,37.63
2018-06-16T16:18:02.980Z,36.94
2018-06-16T16:19:12.480Z,36.11
2018-06-16T16:20:21.986Z,35.59
2018-06-16T16:21:32.025Z,35.6
2018-06-16T16:22:41.790Z,35.31
2018-06-16T16:23:51.823Z,35.04
2018-06-16T16:25:01.583Z,34.96
2018-06-16T16:26:13.344Z,34.96
2018-06-16T16:27:23.102Z,35.01
2018-06-16T16:28:33.129Z,34.91
2018-06-16T16:29:42.886Z,35.13
2018-06-16T16:30:52.380Z,35.07
2018-06-16T16:32:02.341Z,34.86
2018-06-16T16:33:11.568Z,34.86
2018-06-16T16:34:21.064Z,34.85
2018-06-16T16:35:30.820Z,34.37
2018-06-16T16:36:40.581Z,34.1
2018-06-16T16:37:50.693Z,33.66
2018-06-16T16:38:59.919Z,32.78
2018-06-16T16:40:09.682Z,31.59
2018-06-16T16:41:19.599Z,30.89
2018-06-16T16:42:29.354Z,30.46
2018-06-16T16:43:39.113Z,29.96
2018-06-16T16:44:49.133Z,29.46
2018-06-16T16:45:58.895Z,28.83
2018-06-16T16:47:08.392Z,28.52
2018-06-16T16:48:18.154Z,28.38
2018-06-16T16:49:27.644Z,27.78
2018-06-16T16:50:36.867Z,27.4
2018-06-16T16:51:46.619Z,27.18
2018-06-16T16:52:56.643Z,26.61
2018-06-16T16:54:06.672Z,26.03
2018-06-16T16:55:16.167Z,25.76
2018-06-16T16:56:25.659Z,25.43
2018-06-16T16:57:35.725Z,25
2018-06-16T16:58:45.472Z,24.59
2018-06-16T16:59:55.505Z,24.28
2018-06-16T17:01:05.529Z,24.01
2018-06-16T17:02:15.281Z,23.94
2018-06-16T17:03:24.763Z,23.56
2018-06-16T17:04:34.263Z,23.34
2018-06-16T17:05:44.281Z,23.04
2018-06-16T17:06:54.313Z,22.67
2018-06-16T17:08:04.069Z,22.43
2018-06-16T17:09:13.853Z,22.22
2018-06-16T17:10:23.606Z,22.1
2018-06-16T17:11:33.618Z,21.96
2018-06-16T17:12:43.364Z,21.88
2018-06-16T17:13:53.373Z,21.81
2018-06-16T17:15:02.854Z,21.65
2018-06-16T17:16:12.603Z,21.56
2018-06-16T17:17:22.617Z,21.38
2018-06-16T17:18:32.366Z,21.37
2018-06-16T17:19:42.387Z,21.4
2018-06-16T17:20:52.410Z,21.35
2018-06-16T17:22:02.158Z,21.38
2018-06-16T17:23:12.229Z,21.38
2018-06-16T17:24:22.242Z,21.4
2018-06-16T17:25:31.995Z,21.4
2018-06-16T17:26:41.490Z,21.26
2018-06-16T17:27:51.277Z,21.11
2018-06-16T17:29:01.293Z,21.01
2018-06-16T17:30:11.311Z,20.95
2018-06-16T17:31:21.333Z,20.86
2018-06-16T17:32:31.342Z,20.63
2018-06-16T17:33:41.361Z,20.58
2018-06-16T17:34:51.380Z,20.46
2018-06-16T17:36:01.142Z,20.33
2018-06-16T17:37:10.886Z,20.27
2018-06-16T17:38:20.637Z,19.96
2018-06-16T17:39:30.381Z,20.1
2018-06-16T17:40:40.131Z,19.97
2018-06-16T17:41:50.145Z,19.93
2018-06-16T17:42:59.888Z,19.77
2018-06-16T17:44:09.900Z,19.71
2018-06-16T17:45:19.922Z,19.63
2018-06-16T17:46:29.949Z,19.67
2018-06-16T17:47:40.012Z,19.53
2018-06-16T17:48:50.026Z,19.48
2018-06-16T17:49:59.771Z,19.34
2018-06-16T17:51:09.340Z,19.19
2018-06-16T17:52:19.572Z,19.29
2018-06-16T17:53:29.320Z,19.23
2018-06-16T17:54:39.073Z,19.24
2018-06-16T17:55:48.281Z,19.2
2018-06-16T17:56:58.025Z,19.08
2018-06-16T17:58:07.772Z,19.04
2018-06-16T17:59:17.255Z,19.01
2018-06-16T18:00:27.012Z,18.97
2018-06-16T18:01:36.491Z,18.88
2018-06-16T18:02:46.508Z,18.94
2018-06-16T18:03:56.523Z,18.83
2018-06-16T18:05:05.739Z,18.82
2018-06-16T18:06:15.483Z,18.89
2018-06-16T18:07:25.226Z,18.97
2018-06-16T18:08:35.249Z,18.76
2018-06-16T18:09:44.994Z,18.76
2018-06-16T18:10:55.007Z,18.74
2018-06-16T18:12:05.021Z,18.71
2018-06-16T18:13:14.812Z,18.66
2018-06-16T18:14:24.825Z,18.74
2018-06-16T18:15:34.613Z,18.79
2018-06-16T18:16:44.791Z,18.74
2018-06-16T18:17:55.158Z,18.79
2018-06-16T18:19:04.906Z,18.73
2018-06-16T18:20:14.384Z,18.74
2018-06-16T18:21:23.862Z,18.68
2018-06-16T18:22:33.607Z,18.66
2018-06-16T18:23:43.354Z,18.67
2018-06-16T18:24:53.412Z,18.63
2018-06-16T18:26:03.153Z,18.57
2018-06-16T18:27:12.631Z,18.49
2018-06-16T18:28:22.377Z,18.49
2018-06-16T18:29:32.133Z,18.45
2018-06-16T18:30:42.141Z,18.34
2018-06-16T18:31:51.887Z,18.41
2018-06-16T18:33:01.899Z,18.33
2018-06-16T18:34:11.907Z,18.28
2018-06-16T18:35:21.914Z,18.26
2018-06-16T18:36:31.936Z,18.28
2018-06-16T18:37:42.130Z,18.13
2018-06-16T18:38:52.254Z,18.16
2018-06-16T18:40:01.998Z,18.19
2018-06-16T18:41:11.757Z,18.09
2018-06-16T18:42:21.503Z,18.03
2018-06-16T18:43:31.243Z,18.08
2018-06-16T18:44:41.255Z,18.03
2018-06-16T18:45:50.731Z,17.97
2018-06-16T18:47:00.217Z,17.97
2018-06-16T18:48:10.240Z,17.9
2018-06-16T18:49:20.253Z,17.94
2018-06-16T18:50:30.272Z,17.82
2018-06-16T18:51:40.281Z,17.8
2018-06-16T18:52:50.293Z,17.8
2018-06-16T18:54:00.305Z,17.73
2018-06-16T18:55:10.054Z,17.75
2018-06-16T18:56:20.162Z,17.63
2018-06-16T18:57:29.906Z,17.54
2018-06-16T18:58:39.699Z,17.47
2018-06-16T18:59:49.442Z,17.46
2018-06-16T19:00:59.455Z,17.38
2018-06-16T19:02:09.466Z,17.41
2018-06-16T19:03:18.941Z,17.35
2018-06-16T19:04:28.684Z,17.23
2018-06-16T19:05:38.173Z,17.24
2018-06-16T19:06:47.915Z,17.22
2018-06-16T19:07:57.663Z,17.2
2018-06-16T19:09:07.145Z,17.2
2018-06-16T19:10:17.169Z,17.16
2018-06-16T19:11:26.643Z,17.14
2018-06-16T19:12:36.398Z,17.17
2018-06-16T19:13:45.607Z,17.17
2018-06-16T19:14:55.084Z,17.14
2018-06-16T19:16:04.860Z,17.07
2018-06-16T19:17:14.472Z,17.05
2018-06-16T19:18:24.218Z,17.05
2018-06-16T19:19:34.237Z,17.05
2018-06-16T19:20:44.427Z,17.1
2018-06-16T19:21:53.907Z,17.09
2018-06-16T19:23:03.881Z,16.98
2018-06-16T19:24:13.942Z,16.99
2018-06-16T19:25:23.689Z,16.92
2018-06-16T19:26:33.705Z,16.89
2018-06-16T19:27:43.186Z,16.86
2018-06-16T19:28:52.940Z,16.87
2018-06-16T19:30:02.460Z,16.83
2018-06-16T19:31:11.938Z,16.86
2018-06-16T19:32:21.942Z,16.77
2018-06-16T19:33:31.959Z,16.83
2018-06-16T19:34:41.434Z,16.83
2018-06-16T19:35:50.645Z,16.77
2018-06-16T19:37:00.127Z,16.65
2018-06-16T19:38:10.142Z,16.69
2018-06-16T19:39:20.168Z,16.76
2018-06-16T19:40:30.177Z,16.73
2018-06-16T19:41:40.190Z,16.57
2018-06-16T19:42:49.945Z,16.58
2018-06-16T19:43:59.953Z,16.54
2018-06-16T19:45:09.960Z,16.55
2018-06-16T19:46:19.967Z,16.5
2018-06-16T19:47:29.992Z,16.43
2018-06-16T19:48:40.006Z,16.47
2018-06-16T19:49:49.482Z,16.41
2018-06-16T19:50:59.231Z,16.28
2018-06-16T19:52:08.446Z,16.36
2018-06-16T19:53:18.511Z,16.28
2018-06-16T19:54:27.714Z,16.31
2018-06-16T19:55:37.722Z,16.17
2018-06-16T19:56:47.472Z,16.17
2018-06-16T19:57:57.487Z,16.16
2018-06-16T19:59:07.503Z,16.13
2018-06-16T20:00:17.246Z,16.05
2018-06-16T20:01:26.718Z,15.98
2018-06-16T20:02:36.458Z,16.08
2018-06-16T20:03:46.200Z,16.16
2018-06-16T20:04:56.206Z,16.08
2018-06-16T20:06:05.689Z,16.06
2018-06-16T20:07:15.699Z,16.09
2018-06-16T20:08:25.726Z,16.13
2018-06-16T20:09:35.479Z,16.03
2018-06-16T20:10:45.236Z,16.1
2018-06-16T20:11:55.474Z,16.08
2018-06-16T20:13:05.219Z,16.06
2018-06-16T20:14:14.693Z,15.99
2018-06-16T20:15:24.439Z,16.06
2018-06-16T20:16:34.187Z,15.98
2018-06-16T20:17:43.663Z,15.94
2018-06-16T20:18:53.410Z,15.91
2018-06-16T20:20:03.160Z,15.83
2018-06-16T20:21:13.167Z,15.88
2018-06-16T20:22:22.913Z,15.75
2018-06-16T20:23:32.924Z,15.8
2018-06-16T20:24:42.977Z,15.72
2018-06-16T20:25:52.724Z,15.72
2018-06-16T20:27:02.470Z,15.7
2018-06-16T20:28:12.474Z,15.66
2018-06-16T20:29:22.216Z,15.72
2018-06-16T20:30:31.692Z,15.62
2018-06-16T20:31:41.167Z,15.6
2018-06-16T20:32:50.911Z,15.69
2018-06-16T20:34:00.655Z,15.51
2018-06-16T20:35:10.403Z,15.57
2018-06-16T20:36:20.411Z,15.47
2018-06-16T20:37:30.275Z,15.45
2018-06-16T20:38:40.278Z,15.5
2018-06-16T20:39:50.293Z,15.44
2018-06-16T20:41:00.044Z,15.43
2018-06-16T20:42:09.516Z,15.41
2018-06-16T20:43:19.520Z,15.35
2018-06-16T20:44:29.270Z,15.33
2018-06-16T20:45:39.016Z,15.33
2018-06-16T20:46:49.024Z,15.41
2018-06-16T20:47:59.072Z,15.36
2018-06-16T20:49:09.088Z,15.3
2018-06-16T20:50:18.832Z,15.17
2018-06-16T20:51:28.837Z,15.22
2018-06-16T20:52:38.845Z,15.23
2018-06-16T20:53:48.589Z,15.18
2018-06-16T20:54:58.595Z,15.19
2018-06-16T20:56:08.605Z,15.11
2018-06-16T20:57:18.350Z,15.02
2018-06-16T20:58:27.822Z,15.08
2018-06-16T20:59:37.562Z,15.04
2018-06-16T21:00:47.574Z,15.08
2018-06-16T21:01:57.580Z,14.96
2018-06-16T21:03:07.324Z,14.99
2018-06-16T21:04:16.795Z,14.99
2018-06-16T21:05:26.810Z,14.9
2018-06-16T21:06:36.818Z,14.9
2018-06-16T21:07:46.571Z,14.79
2018-06-16T21:08:56.583Z,14.74
2018-06-16T21:10:05.795Z,14.73
2018-06-16T21:11:15.538Z,14.77
2018-06-16T21:12:25.548Z,14.73
2018-06-16T21:13:35.560Z,14.73
2018-06-16T21:14:45.561Z,14.78
2018-06-16T21:15:55.578Z,14.77
2018-06-16T21:17:05.584Z,14.77
2018-06-16T21:18:15.601Z,14.77
2018-06-16T21:19:25.612Z,14.73
2018-06-16T21:20:35.622Z,14.7
2018-06-16T21:21:45.362Z,14.61
2018-06-16T21:22:55.369Z,14.62
2018-06-16T21:24:05.119Z,14.63
2018-06-16T21:25:15.172Z,14.7
2018-06-16T21:26:24.648Z,14.67
2018-06-16T21:27:34.662Z,14.66
2018-06-16T21:28:44.409Z,14.68
2018-06-16T21:29:54.416Z,14.55
2018-06-16T21:31:04.157Z,14.52
2018-06-16T21:32:14.213Z,14.56
2018-06-16T21:33:24.229Z,14.44
2018-06-16T21:34:35.969Z,14.45
2018-06-16T21:35:45.976Z,14.41
2018-06-16T21:36:55.717Z,14.36
2018-06-16T21:38:05.728Z,14.44
2018-06-16T21:39:15.256Z,14.45
2018-06-16T21:40:25.266Z,14.4
2018-06-16T21:41:35.010Z,14.4
2018-06-16T21:42:45.019Z,14.51
2018-06-16T21:43:55.030Z,14.44
2018-06-16T21:45:04.507Z,14.43
2018-06-16T21:46:14.248Z,14.4
2018-06-16T21:47:24.261Z,14.33
2018-06-16T21:48:34.009Z,14.43
2018-06-16T21:49:43.748Z,14.37
2018-06-16T21:50:53.755Z,14.3
2018-06-16T21:52:03.494Z,14.37
2018-06-16T21:53:13.234Z,14.28
2018-06-16T21:54:22.977Z,14.23
2018-06-16T21:55:32.982Z,14.25
2018-06-16T21:56:42.304Z,14.22
2018-06-16T21:57:52.229Z,14.26
2018-06-16T21:59:01.971Z,14.19
2018-06-16T22:00:11.450Z,14.13
2018-06-16T22:01:20.932Z,14.13
2018-06-16T22:02:30.679Z,14.05
2018-06-16T22:03:40.154Z,14.12
2018-06-16T22:04:49.626Z,14.08
2018-06-16T22:05:59.639Z,14.15
2018-06-16T22:07:09.119Z,14.13
2018-06-16T22:08:18.865Z,14.04
2018-06-16T22:09:29.225Z,14.12
2018-06-16T22:10:38.828Z,14.05
2018-06-16T22:11:48.839Z,13.94
2018-06-16T22:12:58.585Z,14.01
2018-06-16T22:14:08.342Z,13.95
2018-06-16T22:15:18.085Z,13.94
2018-06-16T22:16:28.094Z,13.97
2018-06-16T22:17:37.840Z,13.95
2018-06-16T22:18:47.089Z,13.95
2018-06-16T22:19:57.263Z,13.97
2018-06-16T22:21:06.206Z,13.87
2018-06-16T22:22:15.948Z,13.97
2018-06-16T22:23:25.956Z,13.93
2018-06-16T22:24:35.967Z,13.94
2018-06-16T22:25:45.448Z,14.03
2018-06-16T22:26:54.925Z,14
2018-06-16T22:28:04.935Z,14.07
2018-06-16T22:29:14.950Z,14.08
2018-06-16T22:30:24.974Z,14.11
2018-06-16T22:31:34.988Z,14.08
2018-06-16T22:32:44.726Z,14.08
2018-06-16T22:33:54.473Z,14.18
2018-06-16T22:35:03.689Z,14.19
2018-06-16T22:36:13.431Z,14.23
2018-06-16T22:37:22.917Z,14.26
2018-06-16T22:38:32.659Z,14.33
2018-06-16T22:39:42.145Z,14.38
2018-06-16T22:40:52.159Z,14.36
2018-06-16T22:42:01.901Z,14.34
2018-06-16T22:43:11.641Z,14.38
2018-06-16T22:44:21.648Z,14.44
2018-06-16T22:45:31.388Z,14.41
2018-06-16T22:46:41.128Z,14.45
2018-06-16T22:47:50.869Z,14.4
2018-06-16T22:49:00.611Z,14.34
2018-06-16T22:50:10.485Z,14.34
2018-06-16T22:51:20.736Z,14.37
2018-06-16T22:52:30.472Z,14.36
2018-06-16T22:53:40.482Z,14.31
2018-06-16T22:54:50.221Z,14.33
2018-06-16T22:55:59.697Z,14.3
2018-06-16T22:57:09.705Z,14.28
2018-06-16T22:58:19.719Z,14.22
2018-06-16T22:59:29.458Z,14.22
2018-06-16T23:00:39.461Z,14.16
2018-06-16T23:01:49.471Z,14.22
2018-06-16T23:02:59.613Z,14.07
2018-06-16T23:04:09.097Z,14.2
2018-06-16T23:05:19.112Z,14.18
2018-06-16T23:06:29.131Z,14.2
2018-06-16T23:07:39.152Z,14.08
2018-06-16T23:08:49.163Z,14.05
2018-06-16T23:09:59.184Z,13.98
2018-06-16T23:11:09.201Z,13.86
2018-06-16T23:12:18.951Z,13.85
2018-06-16T23:13:28.696Z,13.87
2018-06-16T23:14:38.436Z,13.86
2018-06-16T23:15:47.909Z,13.97
2018-06-16T23:16:57.957Z,13.86
2018-06-16T23:18:07.989Z,13.76
2018-06-16T23:19:18.003Z,13.87
2018-06-16T23:20:28.010Z,13.87
2018-06-16T23:21:38.021Z,13.87
2018-06-16T23:22:48.035Z,13.86
2018-06-16T23:23:58.047Z,13.89
2018-06-16T23:25:08.060Z,13.85
2018-06-16T23:26:18.073Z,13.86
2018-06-16T23:27:27.815Z,13.94
2018-06-16T23:28:37.564Z,13.87
2018-06-16T23:29:47.316Z,13.85
2018-06-16T23:30:57.334Z,13.85
2018-06-16T23:32:06.277Z,13.95
2018-06-16T23:33:16.019Z,13.83
2018-06-16T23:34:25.489Z,13.83
2018-06-16T23:35:35.275Z,13.82
2018-06-16T23:36:45.016Z,13.87
2018-06-16T23:37:55.026Z,13.86
2018-06-16T23:39:05.040Z,13.83
2018-06-16T23:40:14.789Z,13.79
2018-06-16T23:41:24.794Z,13.75
2018-06-16T23:42:34.846Z,13.79
2018-06-16T23:43:44.588Z,13.83
2018-06-16T23:44:54.593Z,13.79
2018-06-16T23:46:04.064Z,13.71
2018-06-16T23:47:13.814Z,13.73
2018-06-16T23:48:23.301Z,13.78
2018-06-16T23:49:33.305Z,13.75
2018-06-16T23:50:43.317Z,13.78
2018-06-16T23:51:53.057Z,13.75
2018-06-16T23:53:03.067Z,13.75
2018-06-16T23:54:12.543Z,13.71
2018-06-16T23:55:22.542Z,13.71
2018-06-16T23:56:32.555Z,13.75
2018-06-16T23:57:42.567Z,13.78
2018-06-16T23:58:52.569Z,13.76
